FLI47I EKBI-EKVG
Flight info
| Callsign | FLI47I |
|---|---|
| Flight time | 1h 50m |
| Altitude | 34000 |
| Route | RERPA DCT UNBUD DCT GUNPA/M077F340 DCT ROBUR |
| Aircraft | A320/M-SDE3FGHIRWY/LB1 |
Departure
| Time | 2026-04-28 16:03 |
|---|---|
| Airport | Billund Airport (EKBI) |
Arrival
| Time | 2026-04-28 17:53 |
|---|---|
| Airport | Vágar Airport (EKVG) |
| Time | Latitude | Longitude | Altitude | Speed | Heading |
|---|---|---|---|---|---|
| 2026-04-28 15:32 | 55.74536 | 9.14749 | 218 ft | 0 kts | 356° |
| 2026-04-28 15:55 | 55.74535 | 9.14749 | 218 ft | 1 kts | 356° |
| 2026-04-28 15:56 | 55.74511 | 9.14751 | 221 ft | 4 kts | 356° |
| 2026-04-28 15:56 | 55.74485 | 9.14754 | 216 ft | 2 kts | 356° |
| 2026-04-28 15:56 | 55.74464 | 9.14759 | 220 ft | 4 kts | 328° |
| 2026-04-28 15:56 | 55.74449 | 9.14792 | 216 ft | 4 kts | 270° |
| 2026-04-28 15:57 | 55.74450 | 9.14831 | 220 ft | 1 kts | 266° |
| 2026-04-28 15:59 | 55.74449 | 9.14775 | 216 ft | 8 kts | 267° |
| 2026-04-28 15:59 | 55.74446 | 9.14706 | 205 ft | 10 kts | 267° |
| 2026-04-28 15:59 | 55.74430 | 9.14494 | 219 ft | 14 kts | 232° |
| 2026-04-28 15:59 | 55.74345 | 9.14467 | 219 ft | 12 kts | 179° |
| 2026-04-28 16:00 | 55.74272 | 9.14456 | 218 ft | 10 kts | 215° |
| 2026-04-28 16:00 | 55.74255 | 9.14335 | 222 ft | 14 kts | 265° |
| 2026-04-28 16:00 | 55.74249 | 9.14148 | 220 ft | 15 kts | 267° |
| 2026-04-28 16:00 | 55.74244 | 9.13972 | 216 ft | 14 kts | 266° |
| 2026-04-28 16:01 | 55.74239 | 9.13803 | 216 ft | 16 kts | 266° |
| 2026-04-28 16:01 | 55.74233 | 9.13570 | 218 ft | 21 kts | 268° |
| 2026-04-28 16:01 | 55.74186 | 9.13336 | 216 ft | 21 kts | 227° |
| 2026-04-28 16:01 | 55.74066 | 9.13251 | 223 ft | 18 kts | 176° |
| 2026-04-28 16:02 | 55.73980 | 9.13282 | 128 ft | 10 kts | 127° |
| 2026-04-28 16:02 | 55.73981 | 9.13483 | 216 ft | 39 kts | 87° |
| 2026-04-28 16:02 | 55.74011 | 9.14462 | 216 ft | 114 kts | 86° |
| 2026-04-28 16:02 | 55.74068 | 9.16207 | 242 ft | 167 kts | 85° |
| 2026-04-28 16:03 | 55.74162 | 9.18372 | 714 ft | 182 kts | 86° |
| 2026-04-28 16:03 | 55.74622 | 9.20423 | 1500 ft | 181 kts | 44° |
| 2026-04-28 16:03 | 55.75742 | 9.21331 | 2031 ft | 185 kts | 357° |
| 2026-04-28 16:03 | 55.76997 | 9.20632 | 2382 ft | 199 kts | 329° |
| 2026-04-28 16:04 | 55.78259 | 9.19356 | 2689 ft | 220 kts | 329° |
| 2026-04-28 16:04 | 55.79674 | 9.17936 | 2979 ft | 246 kts | 330° |
| 2026-04-28 16:04 | 55.81245 | 9.16435 | 3503 ft | 263 kts | 332° |
| 2026-04-28 16:04 | 55.82352 | 9.15420 | 4040 ft | 267 kts | 332° |
| 2026-04-28 16:05 | 55.84563 | 9.13430 | 5143 ft | 272 kts | 333° |
| 2026-04-28 16:05 | 55.86265 | 9.11906 | 5975 ft | 275 kts | 333° |
| 2026-04-28 16:05 | 55.87982 | 9.10364 | 6780 ft | 278 kts | 333° |
| 2026-04-28 16:05 | 55.89134 | 9.09324 | 7312 ft | 281 kts | 333° |
| 2026-04-28 16:06 | 55.90887 | 9.07741 | 8101 ft | 284 kts | 332° |
| 2026-04-28 16:06 | 55.92660 | 9.06136 | 8873 ft | 287 kts | 332° |
| 2026-04-28 16:06 | 55.94378 | 9.04297 | 9604 ft | 290 kts | 320° |
| 2026-04-28 16:06 | 55.95907 | 9.01914 | 10287 ft | 297 kts | 318° |
| 2026-04-28 16:07 | 55.97513 | 8.99377 | 10511 ft | 320 kts | 318° |
| 2026-04-28 16:07 | 55.99241 | 8.96651 | 10746 ft | 340 kts | 318° |
| 2026-04-28 16:07 | 56.02861 | 8.90951 | 11976 ft | 351 kts | 318° |
| 2026-04-28 16:08 | 56.04705 | 8.88046 | 12652 ft | 355 kts | 318° |
| 2026-04-28 16:08 | 56.06564 | 8.85108 | 13315 ft | 358 kts | 318° |
| 2026-04-28 16:08 | 56.08442 | 8.82132 | 13945 ft | 362 kts | 318° |
| 2026-04-28 16:09 | 56.12244 | 8.76087 | 15163 ft | 368 kts | 318° |
| 2026-04-28 16:09 | 56.14170 | 8.73016 | 15750 ft | 372 kts | 318° |
| 2026-04-28 16:09 | 56.16110 | 8.69922 | 16324 ft | 375 kts | 318° |
| 2026-04-28 16:10 | 56.20038 | 8.63649 | 17433 ft | 381 kts | 318° |
| 2026-04-28 16:10 | 56.22027 | 8.60463 | 17974 ft | 384 kts | 318° |
| 2026-04-28 16:10 | 56.26026 | 8.54046 | 19026 ft | 390 kts | 317° |
| 2026-04-28 16:11 | 56.30110 | 8.47476 | 20053 ft | 396 kts | 317° |
| 2026-04-28 16:11 | 56.34253 | 8.40792 | 21045 ft | 402 kts | 317° |
| 2026-04-28 16:12 | 56.38452 | 8.34005 | 21991 ft | 408 kts | 317° |
| 2026-04-28 16:12 | 56.40575 | 8.30568 | 22430 ft | 411 kts | 317° |
| 2026-04-28 16:13 | 56.44848 | 8.23622 | 23277 ft | 416 kts | 317° |
| 2026-04-28 16:13 | 56.47005 | 8.20098 | 23680 ft | 419 kts | 317° |
| 2026-04-28 16:13 | 56.51313 | 8.12899 | 24453 ft | 424 kts | 316° |
| 2026-04-28 16:14 | 56.55603 | 8.05488 | 25161 ft | 428 kts | 316° |
| 2026-04-28 16:14 | 56.59932 | 7.97977 | 25836 ft | 433 kts | 316° |
| 2026-04-28 16:15 | 56.64317 | 7.90407 | 26473 ft | 437 kts | 316° |
| 2026-04-28 16:15 | 56.66525 | 7.86591 | 26782 ft | 439 kts | 316° |
| 2026-04-28 16:15 | 56.68743 | 7.82747 | 27086 ft | 441 kts | 316° |
| 2026-04-28 16:16 | 56.73199 | 7.75001 | 27671 ft | 445 kts | 316° |
| 2026-04-28 16:16 | 56.75419 | 7.71130 | 27946 ft | 447 kts | 316° |
| 2026-04-28 16:17 | 56.79925 | 7.63247 | 28479 ft | 451 kts | 316° |
| 2026-04-28 16:17 | 56.82194 | 7.59266 | 28736 ft | 453 kts | 316° |
| 2026-04-28 16:17 | 56.84463 | 7.55279 | 28988 ft | 454 kts | 316° |
| 2026-04-28 16:17 | 56.86745 | 7.51268 | 29221 ft | 456 kts | 316° |
| 2026-04-28 16:18 | 56.89036 | 7.47239 | 29452 ft | 457 kts | 316° |
| 2026-04-28 16:18 | 56.91335 | 7.43196 | 29675 ft | 459 kts | 316° |
| 2026-04-28 16:18 | 56.93641 | 7.39131 | 29889 ft | 461 kts | 315° |
| 2026-04-28 16:18 | 56.95948 | 7.35045 | 30092 ft | 462 kts | 315° |
| 2026-04-28 16:19 | 56.98258 | 7.30942 | 30296 ft | 463 kts | 315° |
| 2026-04-28 16:19 | 57.00577 | 7.26816 | 30499 ft | 464 kts | 315° |
| 2026-04-28 16:19 | 57.02890 | 7.22694 | 30778 ft | 463 kts | 315° |
| 2026-04-28 16:19 | 57.05198 | 7.18573 | 31065 ft | 463 kts | 315° |
| 2026-04-28 16:20 | 57.07506 | 7.14452 | 31324 ft | 462 kts | 315° |
| 2026-04-28 16:20 | 57.09811 | 7.10327 | 31590 ft | 462 kts | 315° |
| 2026-04-28 16:20 | 57.12110 | 7.06204 | 31847 ft | 461 kts | 315° |
| 2026-04-28 16:20 | 57.14401 | 7.02090 | 32115 ft | 461 kts | 315° |
| 2026-04-28 16:21 | 57.16693 | 6.97958 | 32356 ft | 460 kts | 315° |
| 2026-04-28 16:21 | 57.18976 | 6.93837 | 32606 ft | 460 kts | 315° |
| 2026-04-28 16:21 | 57.21259 | 6.89715 | 32852 ft | 459 kts | 315° |
| 2026-04-28 16:21 | 57.23537 | 6.85597 | 33096 ft | 459 kts | 315° |
| 2026-04-28 16:22 | 57.25814 | 6.81471 | 33337 ft | 458 kts | 315° |
| 2026-04-28 16:22 | 57.28087 | 6.77340 | 33573 ft | 458 kts | 315° |
| 2026-04-28 16:22 | 57.30332 | 6.73253 | 33808 ft | 457 kts | 315° |
| 2026-04-28 16:22 | 57.32622 | 6.69078 | 33972 ft | 457 kts | 315° |
| 2026-04-28 16:23 | 57.37093 | 6.60897 | 34009 ft | 453 kts | 315° |
| 2026-04-28 16:23 | 57.41568 | 6.52681 | 34009 ft | 452 kts | 315° |
| 2026-04-28 16:24 | 57.46032 | 6.44458 | 34009 ft | 452 kts | 315° |
| 2026-04-28 16:24 | 57.50494 | 6.36215 | 34009 ft | 452 kts | 315° |
| 2026-04-28 16:25 | 57.54943 | 6.27959 | 34009 ft | 452 kts | 315° |
| 2026-04-28 16:25 | 57.59387 | 6.19674 | 34007 ft | 452 kts | 314° |
| 2026-04-28 16:26 | 57.63828 | 6.11375 | 34007 ft | 452 kts | 314° |
| 2026-04-28 16:26 | 57.68264 | 6.03056 | 34006 ft | 452 kts | 314° |
| 2026-04-28 16:27 | 57.72694 | 5.94713 | 34006 ft | 452 kts | 314° |
| 2026-04-28 16:28 | 57.79332 | 5.82173 | 34005 ft | 452 kts | 314° |
| 2026-04-28 16:28 | 57.83750 | 5.73786 | 34005 ft | 452 kts | 314° |
| 2026-04-28 16:29 | 57.90356 | 5.61163 | 34004 ft | 452 kts | 314° |
| 2026-04-28 16:30 | 57.96953 | 5.48493 | 34004 ft | 452 kts | 314° |
| 2026-04-28 16:30 | 58.01344 | 5.40021 | 34004 ft | 452 kts | 314° |
| 2026-04-28 16:31 | 58.05729 | 5.31531 | 34004 ft | 452 kts | 314° |
| 2026-04-28 16:31 | 58.10109 | 5.23018 | 34003 ft | 452 kts | 314° |
| 2026-04-28 16:32 | 58.14629 | 5.14782 | 34004 ft | 452 kts | 319° |
| 2026-04-28 16:32 | 58.21799 | 5.03280 | 34003 ft | 452 kts | 319° |
| 2026-04-28 16:33 | 58.25779 | 4.96861 | 34002 ft | 452 kts | 319° |
| 2026-04-28 16:33 | 58.31368 | 4.87797 | 34002 ft | 452 kts | 319° |
| 2026-04-28 16:34 | 58.36148 | 4.80025 | 34002 ft | 452 kts | 319° |
| 2026-04-28 16:34 | 58.40924 | 4.72236 | 34002 ft | 452 kts | 319° |
| 2026-04-28 16:35 | 58.45697 | 4.64421 | 34002 ft | 452 kts | 319° |
| 2026-04-28 16:35 | 58.50436 | 4.56640 | 34002 ft | 452 kts | 319° |
| 2026-04-28 16:36 | 58.55196 | 4.48783 | 34002 ft | 452 kts | 319° |
| 2026-04-28 16:36 | 58.59942 | 4.40906 | 34002 ft | 452 kts | 319° |
| 2026-04-28 16:37 | 58.64690 | 4.33007 | 34001 ft | 452 kts | 319° |
| 2026-04-28 16:38 | 58.71806 | 4.21143 | 34001 ft | 451 kts | 319° |
| 2026-04-28 16:38 | 58.76539 | 4.13197 | 34001 ft | 451 kts | 318° |
| 2026-04-28 16:39 | 58.81270 | 4.05220 | 34001 ft | 451 kts | 318° |
| 2026-04-28 16:39 | 58.85993 | 3.97228 | 34001 ft | 451 kts | 318° |
| 2026-04-28 16:40 | 58.90712 | 3.89217 | 34001 ft | 451 kts | 318° |
| 2026-04-28 16:40 | 58.95430 | 3.81193 | 34001 ft | 451 kts | 318° |
| 2026-04-28 16:41 | 59.00143 | 3.73130 | 34000 ft | 451 kts | 318° |
| 2026-04-28 16:41 | 59.04845 | 3.65049 | 34000 ft | 451 kts | 318° |
| 2026-04-28 16:42 | 59.09516 | 3.57005 | 34000 ft | 451 kts | 318° |
| 2026-04-28 16:42 | 59.14209 | 3.48889 | 34000 ft | 451 kts | 318° |
| 2026-04-28 16:43 | 59.18894 | 3.40759 | 34000 ft | 451 kts | 318° |
| 2026-04-28 16:43 | 59.23574 | 3.32591 | 34000 ft | 451 kts | 318° |
| 2026-04-28 16:44 | 59.28254 | 3.24415 | 33998 ft | 451 kts | 318° |
| 2026-04-28 16:44 | 59.32935 | 3.16199 | 33999 ft | 451 kts | 317° |
| 2026-04-28 16:45 | 59.37597 | 3.07973 | 33999 ft | 451 kts | 317° |
| 2026-04-28 16:45 | 59.42261 | 2.99720 | 33999 ft | 451 kts | 317° |
| 2026-04-28 16:46 | 59.46917 | 2.91441 | 33997 ft | 451 kts | 317° |
| 2026-04-28 16:46 | 59.51562 | 2.83152 | 33999 ft | 451 kts | 317° |
| 2026-04-28 16:47 | 59.56210 | 2.74836 | 33999 ft | 451 kts | 317° |
| 2026-04-28 16:47 | 59.60849 | 2.66501 | 33998 ft | 451 kts | 317° |
| 2026-04-28 16:48 | 59.65480 | 2.58138 | 33998 ft | 451 kts | 317° |
| 2026-04-28 16:48 | 59.70090 | 2.49818 | 33998 ft | 451 kts | 317° |
| 2026-04-28 16:49 | 59.74714 | 2.41419 | 33997 ft | 451 kts | 317° |
| 2026-04-28 16:49 | 59.78578 | 2.34367 | 33997 ft | 451 kts | 317° |
| 2026-04-28 16:50 | 59.83942 | 2.24549 | 33998 ft | 451 kts | 317° |
| 2026-04-28 16:50 | 59.88544 | 2.16064 | 33998 ft | 451 kts | 317° |
| 2026-04-28 16:51 | 59.92395 | 2.08950 | 33998 ft | 451 kts | 316° |
| 2026-04-28 16:51 | 59.96988 | 2.00431 | 33997 ft | 451 kts | 316° |
| 2026-04-28 16:52 | 60.01575 | 1.91888 | 33997 ft | 451 kts | 316° |
| 2026-04-28 16:52 | 60.06128 | 1.83363 | 33997 ft | 451 kts | 316° |
| 2026-04-28 16:53 | 60.10716 | 1.74783 | 33996 ft | 451 kts | 316° |
| 2026-04-28 16:53 | 60.15294 | 1.66177 | 33998 ft | 451 kts | 316° |
| 2026-04-28 16:54 | 60.19851 | 1.57541 | 33997 ft | 451 kts | 316° |
| 2026-04-28 16:54 | 60.24408 | 1.48886 | 33998 ft | 451 kts | 316° |
| 2026-04-28 16:55 | 60.28959 | 1.40198 | 33998 ft | 451 kts | 316° |
| 2026-04-28 16:55 | 60.33509 | 1.31494 | 33998 ft | 451 kts | 316° |
| 2026-04-28 16:56 | 60.38060 | 1.22776 | 33997 ft | 451 kts | 316° |
| 2026-04-28 16:56 | 60.42598 | 1.14019 | 33998 ft | 451 kts | 316° |
| 2026-04-28 16:57 | 60.47119 | 1.05213 | 33998 ft | 451 kts | 315° |
| 2026-04-28 16:57 | 60.51634 | 0.96396 | 33998 ft | 451 kts | 316° |
| 2026-04-28 16:58 | 60.56154 | 0.87561 | 33999 ft | 451 kts | 316° |
| 2026-04-28 16:58 | 60.60644 | 0.78766 | 33998 ft | 451 kts | 315° |
| 2026-04-28 16:59 | 60.65156 | 0.69876 | 33999 ft | 451 kts | 315° |
| 2026-04-28 16:59 | 60.69662 | 0.60975 | 33999 ft | 451 kts | 315° |
| 2026-04-28 17:00 | 60.74163 | 0.52041 | 33999 ft | 451 kts | 315° |
| 2026-04-28 17:00 | 60.78601 | 0.43186 | 33999 ft | 451 kts | 315° |
| 2026-04-28 17:01 | 60.83137 | 0.34106 | 33999 ft | 451 kts | 315° |
| 2026-04-28 17:01 | 60.87583 | 0.25167 | 33999 ft | 451 kts | 315° |
| 2026-04-28 17:02 | 60.92084 | 0.16081 | 34000 ft | 451 kts | 315° |
| 2026-04-28 17:02 | 60.96517 | 0.07075 | 34000 ft | 451 kts | 315° |
| 2026-04-28 17:03 | 61.01481 | -0.09109 | 33997 ft | 448 kts | 288° |
| 2026-04-28 17:03 | 61.03452 | -0.21302 | 33995 ft | 449 kts | 288° |
| 2026-04-28 17:04 | 61.06403 | -0.39659 | 33995 ft | 449 kts | 288° |
| 2026-04-28 17:05 | 61.09329 | -0.58057 | 33998 ft | 449 kts | 288° |
| 2026-04-28 17:06 | 61.12222 | -0.76493 | 33999 ft | 449 kts | 288° |
| 2026-04-28 17:06 | 61.15104 | -0.94965 | 34001 ft | 449 kts | 287° |
| 2026-04-28 17:07 | 61.16999 | -1.07283 | 33999 ft | 449 kts | 287° |
| 2026-04-28 17:07 | 61.18886 | -1.19639 | 34001 ft | 449 kts | 287° |
| 2026-04-28 17:08 | 61.20763 | -1.32002 | 34002 ft | 449 kts | 287° |
| 2026-04-28 17:08 | 61.22629 | -1.44290 | 34002 ft | 449 kts | 287° |
| 2026-04-28 17:09 | 61.24487 | -1.56669 | 34002 ft | 449 kts | 287° |
| 2026-04-28 17:09 | 61.26336 | -1.69076 | 34002 ft | 449 kts | 287° |
| 2026-04-28 17:10 | 61.28173 | -1.81497 | 34002 ft | 449 kts | 287° |
| 2026-04-28 17:10 | 61.29997 | -1.93947 | 34000 ft | 449 kts | 287° |
| 2026-04-28 17:11 | 61.31816 | -2.06417 | 34003 ft | 449 kts | 286° |
| 2026-04-28 17:11 | 61.33615 | -2.18865 | 34003 ft | 449 kts | 286° |
| 2026-04-28 17:12 | 61.35390 | -2.31268 | 34003 ft | 449 kts | 286° |
| 2026-04-28 17:12 | 61.37158 | -2.43750 | 34002 ft | 449 kts | 286° |
| 2026-04-28 17:13 | 61.38920 | -2.56267 | 34000 ft | 449 kts | 286° |
| 2026-04-28 17:13 | 61.40676 | -2.68776 | 34003 ft | 449 kts | 286° |
| 2026-04-28 17:14 | 61.42417 | -2.81300 | 34004 ft | 449 kts | 286° |
| 2026-04-28 17:14 | 61.44155 | -2.93843 | 34004 ft | 449 kts | 285° |
| 2026-04-28 17:15 | 61.45874 | -3.06399 | 33957 ft | 450 kts | 285° |
| 2026-04-28 17:15 | 61.46739 | -3.12772 | 33702 ft | 450 kts | 285° |
| 2026-04-28 17:15 | 61.47583 | -3.18997 | 33451 ft | 450 kts | 285° |
| 2026-04-28 17:16 | 61.48434 | -3.25299 | 33203 ft | 450 kts | 285° |
| 2026-04-28 17:16 | 61.49280 | -3.31612 | 32951 ft | 450 kts | 285° |
| 2026-04-28 17:16 | 61.50119 | -3.37910 | 32699 ft | 449 kts | 285° |
| 2026-04-28 17:16 | 61.50941 | -3.44208 | 32451 ft | 447 kts | 285° |
| 2026-04-28 17:17 | 61.51754 | -3.50487 | 32199 ft | 446 kts | 285° |
| 2026-04-28 17:17 | 61.52558 | -3.56714 | 31952 ft | 444 kts | 285° |
| 2026-04-28 17:17 | 61.53371 | -3.62997 | 31700 ft | 442 kts | 285° |
| 2026-04-28 17:17 | 61.54199 | -3.69191 | 31453 ft | 440 kts | 285° |
| 2026-04-28 17:18 | 61.55032 | -3.75361 | 31197 ft | 439 kts | 285° |
| 2026-04-28 17:18 | 61.55857 | -3.81499 | 30949 ft | 437 kts | 285° |
| 2026-04-28 17:18 | 61.56669 | -3.87619 | 30699 ft | 435 kts | 285° |
| 2026-04-28 17:18 | 61.57469 | -3.93737 | 30449 ft | 433 kts | 285° |
| 2026-04-28 17:19 | 61.58255 | -3.99833 | 30198 ft | 432 kts | 284° |
| 2026-04-28 17:19 | 61.59031 | -4.05905 | 29948 ft | 430 kts | 284° |
| 2026-04-28 17:19 | 61.59801 | -4.11968 | 29702 ft | 428 kts | 284° |
| 2026-04-28 17:19 | 61.60561 | -4.17990 | 29447 ft | 426 kts | 284° |
| 2026-04-28 17:20 | 61.61319 | -4.24001 | 29195 ft | 425 kts | 284° |
| 2026-04-28 17:20 | 61.61820 | -4.27971 | 29032 ft | 424 kts | 284° |
| 2026-04-28 17:20 | 61.62827 | -4.35953 | 28706 ft | 421 kts | 284° |
| 2026-04-28 17:20 | 61.63573 | -4.41906 | 28447 ft | 420 kts | 284° |
| 2026-04-28 17:21 | 61.64312 | -4.47825 | 28197 ft | 418 kts | 284° |
| 2026-04-28 17:21 | 61.65047 | -4.53734 | 27946 ft | 416 kts | 284° |
| 2026-04-28 17:21 | 61.65777 | -4.59614 | 27695 ft | 415 kts | 284° |
| 2026-04-28 17:22 | 61.67214 | -4.71316 | 27195 ft | 411 kts | 284° |
| 2026-04-28 17:22 | 61.67925 | -4.77134 | 26946 ft | 410 kts | 284° |
| 2026-04-28 17:22 | 61.68636 | -4.82947 | 26696 ft | 408 kts | 284° |
| 2026-04-28 17:23 | 61.70029 | -4.94411 | 26198 ft | 405 kts | 284° |
| 2026-04-28 17:23 | 61.70724 | -5.00167 | 25946 ft | 403 kts | 284° |
| 2026-04-28 17:23 | 61.71408 | -5.05885 | 25696 ft | 402 kts | 284° |
| 2026-04-28 17:23 | 61.72084 | -5.11590 | 25447 ft | 400 kts | 283° |
| 2026-04-28 17:24 | 61.72755 | -5.17266 | 25196 ft | 399 kts | 283° |
| 2026-04-28 17:24 | 61.73422 | -5.22900 | 24850 ft | 393 kts | 283° |
| 2026-04-28 17:24 | 61.74080 | -5.28463 | 24399 ft | 390 kts | 283° |
| 2026-04-28 17:24 | 61.74731 | -5.33999 | 23929 ft | 387 kts | 283° |
| 2026-04-28 17:25 | 61.75372 | -5.39481 | 23478 ft | 384 kts | 283° |
| 2026-04-28 17:25 | 61.76634 | -5.50337 | 22573 ft | 378 kts | 283° |
| 2026-04-28 17:25 | 61.77256 | -5.55704 | 22117 ft | 375 kts | 283° |
| 2026-04-28 17:26 | 61.77874 | -5.61047 | 21662 ft | 373 kts | 283° |
| 2026-04-28 17:26 | 61.78486 | -5.66362 | 21207 ft | 371 kts | 283° |
| 2026-04-28 17:26 | 61.79093 | -5.71648 | 20743 ft | 369 kts | 283° |
| 2026-04-28 17:26 | 61.79695 | -5.76905 | 20279 ft | 367 kts | 283° |
| 2026-04-28 17:27 | 61.80292 | -5.82138 | 19818 ft | 365 kts | 283° |
| 2026-04-28 17:27 | 61.80886 | -5.87365 | 19353 ft | 364 kts | 283° |
| 2026-04-28 17:27 | 61.81470 | -5.92556 | 18892 ft | 362 kts | 283° |
| 2026-04-28 17:27 | 61.82047 | -5.97718 | 18432 ft | 360 kts | 283° |
| 2026-04-28 17:28 | 61.82620 | -6.02868 | 17973 ft | 359 kts | 283° |
| 2026-04-28 17:28 | 61.83759 | -6.13104 | 17070 ft | 355 kts | 283° |
| 2026-04-28 17:28 | 61.84322 | -6.18180 | 16628 ft | 354 kts | 283° |
| 2026-04-28 17:29 | 61.84882 | -6.23240 | 16178 ft | 352 kts | 283° |
| 2026-04-28 17:29 | 61.85431 | -6.28219 | 15751 ft | 351 kts | 283° |
| 2026-04-28 17:29 | 61.85981 | -6.33244 | 15313 ft | 349 kts | 282° |
| 2026-04-28 17:30 | 61.87066 | -6.43235 | 14441 ft | 346 kts | 282° |
| 2026-04-28 17:30 | 61.88131 | -6.53125 | 13564 ft | 343 kts | 282° |
| 2026-04-28 17:30 | 61.88680 | -6.58032 | 13109 ft | 341 kts | 286° |
| 2026-04-28 17:31 | 61.89419 | -6.62802 | 12633 ft | 340 kts | 288° |
| 2026-04-28 17:31 | 61.90897 | -6.72301 | 11676 ft | 338 kts | 288° |
| 2026-04-28 17:32 | 61.92349 | -6.81744 | 10626 ft | 337 kts | 287° |
| 2026-04-28 17:32 | 61.93064 | -6.86458 | 10246 ft | 332 kts | 287° |
| 2026-04-28 17:32 | 61.93757 | -6.91024 | 10108 ft | 316 kts | 287° |
| 2026-04-28 17:32 | 61.94408 | -6.95294 | 9949 ft | 299 kts | 287° |
| 2026-04-28 17:33 | 61.95040 | -6.99453 | 9644 ft | 293 kts | 287° |
| 2026-04-28 17:33 | 61.95663 | -7.03573 | 9242 ft | 292 kts | 287° |
| 2026-04-28 17:33 | 61.96274 | -7.07639 | 8889 ft | 290 kts | 287° |
| 2026-04-28 17:33 | 61.96482 | -7.09023 | 8708 ft | 291 kts | 287° |
| 2026-04-28 17:34 | 61.97500 | -7.15812 | 8104 ft | 287 kts | 287° |
| 2026-04-28 17:34 | 61.98104 | -7.19840 | 7702 ft | 285 kts | 287° |
| 2026-04-28 17:34 | 61.98699 | -7.23834 | 7194 ft | 283 kts | 287° |
| 2026-04-28 17:34 | 61.99293 | -7.27828 | 6527 ft | 284 kts | 287° |
| 2026-04-28 17:35 | 61.99883 | -7.31803 | 5775 ft | 283 kts | 287° |
| 2026-04-28 17:35 | 62.00278 | -7.34457 | 5334 ft | 281 kts | 287° |
| 2026-04-28 17:35 | 62.00857 | -7.38337 | 5039 ft | 263 kts | 287° |
| 2026-04-28 17:35 | 62.01557 | -7.43055 | 4945 ft | 240 kts | 287° |
| 2026-04-28 17:36 | 62.02035 | -7.46285 | 4862 ft | 214 kts | 287° |
| 2026-04-28 17:36 | 62.02370 | -7.48182 | 4792 ft | 200 kts | 294° |
| 2026-04-28 17:36 | 62.03065 | -7.50684 | 4432 ft | 192 kts | 306° |
| 2026-04-28 17:36 | 62.03927 | -7.52719 | 4160 ft | 178 kts | 317° |
| 2026-04-28 17:37 | 62.04862 | -7.54252 | 3928 ft | 163 kts | 326° |
| 2026-04-28 17:37 | 62.05830 | -7.55354 | 3703 ft | 154 kts | 336° |
| 2026-04-28 17:37 | 62.06837 | -7.55982 | 3485 ft | 152 kts | 353° |
| 2026-04-28 17:37 | 62.07888 | -7.55892 | 3258 ft | 152 kts | 12° |
| 2026-04-28 17:38 | 62.08867 | -7.55091 | 3032 ft | 151 kts | 31° |
| 2026-04-28 17:38 | 62.09680 | -7.53662 | 2824 ft | 151 kts | 49° |
| 2026-04-28 17:38 | 62.10232 | -7.51775 | 2581 ft | 150 kts | 68° |
| 2026-04-28 17:38 | 62.10471 | -7.49617 | 2367 ft | 149 kts | 87° |
| 2026-04-28 17:39 | 62.10379 | -7.47421 | 2110 ft | 148 kts | 105° |
| 2026-04-28 17:39 | 62.10014 | -7.45372 | 1857 ft | 147 kts | 114° |
| 2026-04-28 17:39 | 62.09216 | -7.41367 | 1376 ft | 146 kts | 114° |
| 2026-04-28 17:40 | 62.08819 | -7.39370 | 1150 ft | 146 kts | 114° |
| 2026-04-28 17:40 | 62.08427 | -7.37405 | 929 ft | 145 kts | 114° |
| 2026-04-28 17:40 | 62.08031 | -7.35422 | 695 ft | 145 kts | 114° |
| 2026-04-28 17:40 | 62.07637 | -7.33441 | 471 ft | 144 kts | 114° |
| 2026-04-28 17:41 | 62.07281 | -7.31441 | 309 ft | 143 kts | 110° |
| 2026-04-28 17:41 | 62.06813 | -7.29577 | 356 ft | 143 kts | 117° |
| 2026-04-28 17:41 | 62.06354 | -7.27653 | 448 ft | 155 kts | 118° |
| 2026-04-28 17:41 | 62.05804 | -7.25339 | 713 ft | 200 kts | 118° |
| 2026-04-28 17:42 | 62.05126 | -7.22602 | 1247 ft | 214 kts | 118° |
| 2026-04-28 17:42 | 62.04442 | -7.19858 | 1413 ft | 205 kts | 119° |
| 2026-04-28 17:42 | 62.03759 | -7.17151 | 1827 ft | 214 kts | 118° |
| 2026-04-28 17:42 | 62.02947 | -7.14421 | 2397 ft | 224 kts | 132° |
| 2026-04-28 17:43 | 62.01759 | -7.12247 | 3182 ft | 227 kts | 149° |
| 2026-04-28 17:43 | 62.00282 | -7.10904 | 3549 ft | 233 kts | 168° |
| 2026-04-28 17:43 | 61.98670 | -7.10657 | 3638 ft | 232 kts | 187° |
| 2026-04-28 17:43 | 61.97111 | -7.11534 | 3662 ft | 232 kts | 205° |
| 2026-04-28 17:44 | 61.95770 | -7.13387 | 3663 ft | 229 kts | 223° |
| 2026-04-28 17:44 | 61.94779 | -7.16004 | 3664 ft | 227 kts | 241° |
| 2026-04-28 17:44 | 61.94224 | -7.19091 | 3665 ft | 228 kts | 259° |
| 2026-04-28 17:44 | 61.94145 | -7.22439 | 3665 ft | 228 kts | 277° |
| 2026-04-28 17:45 | 61.94575 | -7.25689 | 3665 ft | 229 kts | 295° |
| 2026-04-28 17:45 | 61.95442 | -7.28525 | 3666 ft | 230 kts | 307° |
| 2026-04-28 17:45 | 61.96404 | -7.31238 | 3665 ft | 230 kts | 306° |
| 2026-04-28 17:45 | 61.97353 | -7.33936 | 3665 ft | 230 kts | 306° |
| 2026-04-28 17:46 | 61.98308 | -7.36668 | 3665 ft | 230 kts | 306° |
| 2026-04-28 17:46 | 61.99262 | -7.39415 | 3665 ft | 230 kts | 306° |
| 2026-04-28 17:46 | 62.00213 | -7.42155 | 3665 ft | 230 kts | 306° |
| 2026-04-28 17:46 | 62.01164 | -7.44898 | 3665 ft | 230 kts | 306° |
| 2026-04-28 17:47 | 62.02105 | -7.47607 | 3660 ft | 230 kts | 306° |
| 2026-04-28 17:47 | 62.03062 | -7.50353 | 3663 ft | 230 kts | 306° |
| 2026-04-28 17:47 | 62.04018 | -7.53095 | 3663 ft | 230 kts | 306° |
| 2026-04-28 17:47 | 62.04647 | -7.54911 | 3666 ft | 230 kts | 306° |
| 2026-04-28 17:48 | 62.05902 | -7.58538 | 3666 ft | 224 kts | 306° |
| 2026-04-28 17:48 | 62.06791 | -7.61114 | 3673 ft | 207 kts | 306° |
| 2026-04-28 17:48 | 62.07607 | -7.63481 | 3682 ft | 188 kts | 305° |
| 2026-04-28 17:48 | 62.08508 | -7.65327 | 3633 ft | 174 kts | 334° |
| 2026-04-28 17:49 | 62.09667 | -7.65690 | 3652 ft | 173 kts | 12° |
| 2026-04-28 17:49 | 62.10701 | -7.64444 | 3653 ft | 173 kts | 50° |
| 2026-04-28 17:49 | 62.11156 | -7.62114 | 3657 ft | 172 kts | 89° |
| 2026-04-28 17:49 | 62.10897 | -7.59621 | 3444 ft | 173 kts | 108° |
| 2026-04-28 17:50 | 62.10578 | -7.57163 | 3141 ft | 172 kts | 105° |
| 2026-04-28 17:50 | 62.10369 | -7.54661 | 2842 ft | 170 kts | 95° |
| 2026-04-28 17:50 | 62.10381 | -7.52144 | 2563 ft | 170 kts | 85° |
| 2026-04-28 17:50 | 62.10497 | -7.49680 | 2295 ft | 160 kts | 86° |
| 2026-04-28 17:51 | 62.10398 | -7.47392 | 2052 ft | 151 kts | 107° |
| 2026-04-28 17:51 | 62.10013 | -7.45332 | 1826 ft | 148 kts | 115° |
| 2026-04-28 17:51 | 62.09615 | -7.43356 | 1732 ft | 147 kts | 114° |
| 2026-04-28 17:51 | 62.09210 | -7.41332 | 1437 ft | 147 kts | 114° |
| 2026-04-28 17:52 | 62.08811 | -7.39324 | 1170 ft | 146 kts | 114° |
| 2026-04-28 17:52 | 62.08414 | -7.37326 | 932 ft | 145 kts | 114° |
| 2026-04-28 17:52 | 62.07632 | -7.33407 | 472 ft | 144 kts | 114° |
| 2026-04-28 17:53 | 62.07277 | -7.31418 | 251 ft | 143 kts | 116° |
| 2026-04-28 17:53 | 62.06818 | -7.29568 | 329 ft | 143 kts | 117° |
| 2026-04-28 17:53 | 62.06399 | -7.27878 | 298 ft | 109 kts | 114° |
| 2026-04-28 17:53 | 62.06152 | -7.26894 | 273 ft | 48 kts | 117° |
| 2026-04-28 17:54 | 62.06049 | -7.26483 | 260 ft | 29 kts | 119° |
| 2026-04-28 17:54 | 62.05974 | -7.26225 | 249 ft | 8 kts | 104° |
| 2026-04-28 17:54 | 62.05987 | -7.26216 | 249 ft | 1 kts | 314° |
| 2026-04-28 17:54 | 62.06028 | -7.26393 | 255 ft | 21 kts | 298° |
| 2026-04-28 17:55 | 62.06075 | -7.26578 | 264 ft | 10 kts | 298° |
| 2026-04-28 17:55 | 62.06117 | -7.26750 | 269 ft | 18 kts | 297° |
| 2026-04-28 17:55 | 62.06196 | -7.27068 | 276 ft | 29 kts | 298° |
| 2026-04-28 17:55 | 62.06286 | -7.27429 | 291 ft | 26 kts | 298° |
| 2026-04-28 17:56 | 62.06361 | -7.27733 | 296 ft | 20 kts | 298° |
| 2026-04-28 17:56 | 62.06422 | -7.27979 | 293 ft | 19 kts | 298° |
| 2026-04-28 17:56 | 62.06491 | -7.28155 | 287 ft | 11 kts | 354° |
| 2026-04-28 17:56 | 62.06549 | -7.28105 | 291 ft | 8 kts | 21° |
| 2026-04-28 17:57 | 62.06613 | -7.28085 | 291 ft | 7 kts | 0° |
| 2026-04-28 17:57 | 62.06643 | -7.28061 | 291 ft | 3 kts | 47° |
| 2026-04-28 17:57 | 62.06661 | -7.27984 | 292 ft | 6 kts | 47° |
| 2026-04-28 17:57 | 62.06683 | -7.27953 | 289 ft | 2 kts | 28° |
| 2026-04-28 17:58 | 62.06686 | -7.27951 | 289 ft | 0 kts | 28° |
| 2026-04-28 17:58 | 62.06690 | -7.27946 | 294 ft | 0 kts | 28° |